Ghaziabad Weather



Ghaziabad's Current Weather

Temprature 38.95o broken clouds

broken clouds

Rain: 0 %

Min Temprature38.95o
Max Temprature38.95o
Humidity35
Wind Speed5.38 m/h
Sun Rise05:34:44
Sun Set18:53:04
Current Time: 13-Aug-2020 20:03:25
Lat/Lon: 30.4, 72.76




Ghaziabad's Geo Location



Ghaziabad's Weather Forecast

Time Overall Temp Min Temp Max Temp Humidity Wind Speed Rain
13-Aug-2020 (Thu)
23:00:00 broken clouds 37.050 35.050 37.050 43 7.03 m/h 0 %
14-Aug-2020 (Fri)
02:00:00 overcast clouds 34.620 33.430 34.620 54 4.6 m/h 0 %
05:00:00 overcast clouds 32.460 32.020 32.460 62 5.34 m/h 0 %
08:00:00 broken clouds 34.570 34.530 34.570 56 5.19 m/h 0 %
11:00:00 scattered clouds 40.010 40.010 40.010 37 2.27 m/h 0 %
14:00:00 scattered clouds 40.790 40.790 40.790 33 1.08 m/h 0 %
17:00:00 light rain 38.570 38.570 38.570 41 1.55 m/h 64 %
20:00:00 light rain 36.060 36.060 36.060 47 2.03 m/h 11 %
23:00:00 clear sky 34.300 34.300 34.300 52 2.66 m/h 0 %
15-Aug-2020 (Sat)
02:00:00 light rain 32.330 32.330 32.330 60 3.99 m/h 89 %
05:00:00 light rain 31.820 31.820 31.820 65 2.41 m/h 113 %
08:00:00 overcast clouds 33.740 33.740 33.740 59 3.38 m/h 0 %
11:00:00 broken clouds 40.080 40.080 40.080 35 3.3 m/h 0 %
14:00:00 few clouds 43.110 43.110 43.110 27 2.8 m/h 0 %
17:00:00 scattered clouds 40.040 40.040 40.040 34 4.27 m/h 0 %
20:00:00 scattered clouds 37.420 37.420 37.420 41 2.95 m/h 0 %
23:00:00 few clouds 36.220 36.220 36.220 43 3.85 m/h 0 %
16-Aug-2020 (Sun)
02:00:00 light rain 34.340 34.340 34.340 50 3.09 m/h 20 %
05:00:00 scattered clouds 34.030 34.030 34.030 53 3.58 m/h 0 %
08:00:00 clear sky 36.270 36.270 36.270 47 4.2 m/h 0 %
11:00:00 few clouds 40.350 40.350 40.350 35 3.23 m/h 0 %
14:00:00 few clouds 43.350 43.350 43.350 28 3.37 m/h 0 %
17:00:00 light rain 36.460 36.460 36.460 44 5.54 m/h 36 %
20:00:00 light rain 35.690 35.690 35.690 46 2.9 m/h 90 %
23:00:00 few clouds 34.600 34.600 34.600 50 3.4 m/h 0 %
17-Aug-2020 (Mon)
02:00:00 clear sky 33.700 33.700 33.700 54 2.67 m/h 0 %
05:00:00 clear sky 33.220 33.220 33.220 53 2.74 m/h 0 %
08:00:00 broken clouds 35.080 35.080 35.080 50 5.11 m/h 0 %
11:00:00 broken clouds 39.920 39.920 39.920 36 5.23 m/h 0 %
14:00:00 few clouds 42.280 42.280 42.280 30 3.9 m/h 0 %
17:00:00 scattered clouds 40.620 40.620 40.620 32 4.33 m/h 0 %
20:00:00 overcast clouds 37.360 37.360 37.360 38 4.52 m/h 0 %
23:00:00 overcast clouds 34.950 34.950 34.950 48 6.65 m/h 0 %
18-Aug-2020 (Tue)
02:00:00 overcast clouds 33.170 33.170 33.170 53 3.83 m/h 0 %
05:00:00 broken clouds 32.090 32.090 32.090 57 3.69 m/h 0 %
08:00:00 clear sky 34.790 34.790 34.790 49 4.91 m/h 0 %
11:00:00 clear sky 40.190 40.190 40.190 36 5.19 m/h 0 %
14:00:00 few clouds 41.910 41.910 41.910 32 4.13 m/h 0 %
17:00:00 scattered clouds 40.830 40.830 40.830 34 4.43 m/h 0 %
20:00:00 broken clouds 36.690 36.690 36.690 45 5.03 m/h 0 %

Famous Cities (60)